Allendale, Wyoming
Current Conditions -  °F | °C
As of 4:53 PM on Wednesday 28 Jan 2015 (Local Time) from KCPR Reporting Station
Overcast Overcast  
Wind Chill: 32°   Ceiling: 1500
Heat Index: 38°   Visibility: 10mi
Dew Point: 34°   Wind: 8mph
Humidity: 86%   Direction: 40°NE
Pressure: 30.22"   Gusts: NA
Location:  42.84°N, 106.275°W
Report Text: KCPR 282353Z 04007KT 10SM BKN015 OVC034 03/01 A3022 RMK AO2 SLP239 60010 T00330011 10044 20028 51016
Loading
Personal Weather Stations






























Interactive Weather Map New forecast layout! Learn more

10-Day Weather Forecast

Advertisements
Track Severe Weather on mobile